Tiempo atmosférico en la estación meteorológica de Muniesa, Teruel (800 m.)



Fecha
DESCASC
Temp. máxima en grados centígrados (hora)
DESCASC
Temp. mínima en grados centígrados (hora)
DESCASC
Temp. media en grados centígrados
DESCASC
Racha de viento máxima en m/sg (hora)
DESCASC
Velocidad máxima media en intervalos de 10 minutos(hora)
DESCASC
Precipitaciones diarias en mm
DESCASC
Precipitaciones de 00:00 a 06:00 en mm
DESCASC
Precipitaciones de 06:00 a 12:00 en mm
DESCASC
Precipitaciones de 12:00 a 18:00 en mm
DESCASC
Precipitaciones de 18:00 a 24:00 en mm
DESCASC
22-04-2019 13.3 (16:50) 7.1 (07:30) 10.2 4.72 (17:20) 3.33 (23:59) 0.2 0 0.2 0 0
21-04-2019 8.7 (14:50) 5.6 (00:00) 7.1 7.22 (02:00) 4.72 (01:50) 4.6 3.6 0 1 0
20-04-2019 13.6 (14:20) 5.6 (23:50) 9.6 12.22 (17:30) 7.5 (17:30) 6.8 0 0 0 6.8
19-04-2019 14.4 (16:10) 7.6 (02:10) 11 17.22 (15:40) 10.83 (15:40) 25.2 21 4 0.2 0
18-04-2019 15.8 (16:00) 7.2 (00:00) 11.5 12.78 (18:00) 8.89 (16:20) 6.8 0 0.2 0 6.6
17-04-2019 19.9 (16:20) 5.1 (00:00) 12.5 8.61 (15:50) 5.28 (17:00) 0 0 0 0 0
16-04-2019 18.2 (17:20) 7.6 (00:00) 12.9 8.61 (17:20) 5.28 (20:00) 0.4 0.4 0 0 0
15-04-2019 22.9 (14:10) 8.5 (00:00) 15.7 10.83 (17:10) 7.78 (17:10) 0 0 0 0 0
14-04-2019 22.2 (16:40) 7.5 (00:00) 14.9 12.78 (10:10) 7.5 (10:20) 0 0 0 0 0
13-04-2019 19.3 (17:40) 0.8 (00:00) 10 7.5 (00:40) 3.89 (00:10) 0 0 0 0 0
12-04-2019 14.6 (18:00) 4.8 (00:00) 9.7 10.28 (09:40) 6.39 (12:50) 0 0 0 0 0
11-04-2019 11.8 (17:00) 4.4 (00:00) 8.1 16.11 (17:10) 9.44 (15:20) 0 0 0 0 0
10-04-2019 12.2 (17:50) 4.9 (00:00) 8.5 13.61 (21:30) 8.06 (21:30) 0 0 0 0 0
09-04-2019 13.6 (15:20) 4.9 (00:00) 9.3 13.61 (17:20) 8.06 (17:20) 0.2 0 0 0 0.2
08-04-2019 14.9 (15:10) 6.6 (00:00) 10.7 11.39 (16:40) 6.67 (13:30) 2.2 0.4 0.2 1.6 0
07-04-2019 11.9 (18:10) 3.5 (00:00) 7.7 12.5 (10:50) 7.78 (11:00) 0 0 0 0 0
06-04-2019 10.7 (15:40) 3.3 (00:00) 7 14.17 (11:00) 8.61 (12:30) 0.2 0 0 0.2 0
05-04-2019 11.3 (13:10) 3.1 (00:00) 7.2 10.56 (05:40) 6.94 (04:00) 0.2 0 0 0 0.2
04-04-2019 12.5 (18:10) -1.6 (-00:0) 5.4 7.22 (12:20) 4.17 (10:00) 0 0 0 0 0
03-04-2019 9.3 (13:10) 1.8 (22:30) 5.6 12.5 (20:00) 7.22 (20:10) 2 0 0 1.8 0.2
02-04-2019 15.1 (15:10) 6.2 (00:00) 10.7 10.83 (17:30) 7.22 (17:40) 0.4 0 0 0.2 0.2
01-04-2019 11.7 (17:00) 5.8 (00:00) 8.8 5.56 (14:30) 3.89 (14:30) 9.4 6.4 1.6 0.2 1.2
31-03-2019 7.7 (14:40) 1.9 (00:00) 4.8 5 (13:00) 3.33 (19:00) 11 0 0 4.4 6.6
30-03-2019 15.7 (15:50) 1.8 (00:00) 8.7 8.61 (14:50) 5.28 (18:20) 0 0 0 0 0
29-03-2019 16.5 (15:20) 1.5 (00:00) 9 13.61 (16:20) 7.78 (17:30) 0 0 0 0 0
28-03-2019 16.2 (16:00) 1.4 (00:00) 8.8 5.83 (13:40) 2.78 (13:40) 0 0 0 0 0
27-03-2019 16 (17:20) 2.1 (00:00) 9 7.22 (10:10) 4.17 (09:10) 0 0 0 0 0
26-03-2019 15.8 (17:30) 2.9 (00:00) 9.4 8.33 (02:00) 4.44 (01:40) 0 0 0 0 0
25-03-2019 15.2 (15:20) 4.7 (00:00) 9.9 11.67 (19:10) 7.22 (17:50) 0 0 0 0 0

Gráficas

Temp. máximas Temp. mínimas Temp. medias Precipitaciones Rachas de viento máximas Velocidades máximas media en intervalos de 10 minutos

Datos horarios

Fecha y hora oficial Temperatura (ºC) Velocidad del viento (km/h) Dirección del viento Racha (km/h) Dirección de racha Precipitación (mm) Presión (hPa) Tendencia (hPa) Humedad (%)
2019-04-23 23:00:00 6.9 9 Sudoeste 20 Oeste 0 -- -- 69
2019-04-23 22:00:00 8.5 12 Oeste 33 Sudoeste 0 -- -- 65
2019-04-23 21:00:00 9.6 6 Sur 22 Sudoeste 0 -- -- 66
2019-04-23 20:00:00 11.1 14 Sudoeste 42 Sur 0 -- -- 65
2019-04-23 19:00:00 12.4 20 Sudoeste 35 Sudoeste 0 -- -- 60
2019-04-23 18:00:00 12.5 20 Sur 44 Sur 0 -- -- 63
2019-04-23 17:00:00 12.3 17 Sudoeste 41 Sudoeste 0 -- -- 65
2019-04-23 16:00:00 11.3 19 Sudoeste 39 Sudoeste 0 -- -- 73
2019-04-23 15:00:00 15.2 19 Sudoeste 34 Sur 0 -- -- 58
2019-04-23 14:00:00 13.9 14 Sur 32 Sur 0 -- -- 63
2019-04-23 13:00:00 14 16 Sur 30 Sur 0 -- -- 61
2019-04-23 12:00:00 14 12 Sur 18 Sur 0 -- -- 62
2019-04-23 11:00:00 12.8 3 Sudeste 10 Sudeste 0 -- -- 65
2019-04-23 10:00:00 11.5 3 Sur 6 Este 0 -- -- 74
2019-04-23 09:00:00 9.5 0 Calma 6 Sudoeste 0 -- -- 85
2019-04-23 08:00:00 8.8 4 Sur 6 Sudeste 0 -- -- 87
2019-04-23 07:00:00 8.8 2 Sudeste 12 Sudeste 0 -- -- 84
2019-04-23 06:00:00 8 6 Este 9 Este 0 -- -- 86
2019-04-23 05:00:00 8 4 Sudeste 8 Sur 0 -- -- 87
2019-04-23 04:00:00 8.5 3 Sur 10 Sur 0 -- -- 90
2019-04-23 03:00:00 8.7 3 Sur 10 Sudeste 0 -- -- 93
2019-04-23 02:00:00 8.7 2 Sudeste 15 Este 0 -- -- 93
2019-04-23 01:00:00 8.8 11 Sudeste 16 Este 0 -- -- 92
2019-04-23 00:00:00 8.7 12 Este 14 Este 0 -- -- 91
2019-04-22 23:00:00 10.1 3 Sudeste 8 Sudeste 0 -- -- 86
2019-04-22 22:00:00 10.5 4 Este 9 Este 0 -- -- 86
2019-04-22 21:00:00 11.1 4 Sudeste 9 Este 0 -- -- 81
2019-04-22 20:00:00 11.7 6 Este 10 Este 0 -- -- 76
2019-04-22 19:00:00 11.7 5 Sudeste 11 Sudeste 0 -- -- 73
2019-04-22 18:00:00 12.1 6 Sudeste 17 Sudeste 0 -- -- 70
2019-04-22 17:00:00 13 7 Sudeste 13 Sudeste 0 -- -- 67
2019-04-22 16:00:00 12.5 5 Sudoeste 9 Sudoeste 0 -- -- 70
2019-04-22 15:00:00 11 3 Sudeste 9 Sudoeste 0 -- -- 72
2019-04-22 14:00:00 9.9 3 Sudoeste 10 Oeste 0 -- -- 80
2019-04-22 13:00:00 8.7 5 Oeste 10 Oeste 0 -- -- 88
2019-04-22 12:00:00 8.3 5 Noroeste 10 Noroeste 0.2 -- -- 93
2019-04-22 11:00:00 8 6 Noroeste 10 Norte 0 -- -- 92
2019-04-22 10:00:00 7.7 5 Norte 9 Norte 0 -- -- 92
2019-04-22 09:00:00 7.4 2 Norte 6 Norte 0 -- -- 92
2019-04-22 08:00:00 7.3 0 Calma 5 Oeste 0 -- -- 92
2019-04-22 07:00:00 7.2 3 Oeste 5 Oeste 0 -- -- 93
2019-04-22 06:00:00 7.3 2 Oeste 5 Noroeste 0 -- -- 93
2019-04-22 05:00:00 7.5 3 Oeste 7 Oeste 0 -- -- 93
2019-04-22 04:00:00 7.7 3 Oeste 10 Oeste 0 -- -- 93
2019-04-22 03:00:00 7.7 2 Sudoeste 6 Noroeste 0 -- -- 93
2019-04-22 02:00:00 7.8 2 Noroeste 5 Oeste 0 -- -- 93
2019-04-22 01:00:00 7.8 2 Oeste 5 Oeste 0 -- -- 94
2019-04-22 00:00:00 7.8 2 Oeste 6 Noroeste 0 -- -- 95
2019-04-21 23:00:00 7.8 0 Calma 6 Noroeste 0 -- -- 95
2019-04-21 22:00:00 7.9 2 Noroeste 6 Noroeste 0 -- -- 96
2019-04-21 21:00:00 8 3 Noroeste 9 Noroeste 0 -- -- 96
2019-04-21 20:00:00 8 5 Noroeste 9 Noroeste 0 -- -- 96
2019-04-21 19:00:00 8 4 Noroeste 10 Noroeste 0 -- -- 96
2019-04-21 18:00:00 7.9 5 Noroeste 11 Nordeste 0.8 -- -- 95
2019-04-21 17:00:00 7.9 6 Norte 16 Norte 0.2 -- -- 94
2019-04-21 16:00:00 8.4 7 Norte 15 Norte 0 -- -- 87
2019-04-21 15:00:00 8.6 8 Norte 15 Noroeste 0 -- -- 89
2019-04-21 14:00:00 7.9 8 Noroeste 12 Norte 0 -- -- 92
2019-04-21 13:00:00 7.8 6 Norte 14 Noroeste 0 -- -- 93
2019-04-21 12:00:00 7 8 Norte 14 Norte 0 -- -- 97
2019-04-21 11:00:00 6.7 7 Norte 14 Noroeste 0 -- -- 98
2019-04-21 10:00:00 6.4 7 Norte 13 Noroeste 0 -- -- 98
2019-04-21 09:00:00 6.2 6 Norte 10 Noroeste 0 -- -- 98
2019-04-21 08:00:00 6.2 4 Norte 12 Norte 0 -- -- 97
2019-04-21 07:00:00 6.2 4 Norte 12 Nordeste 0 -- -- 97
2019-04-21 06:00:00 6.2 7 Nordeste 15 Nordeste 0 -- -- 96
2019-04-21 05:00:00 6.3 9 Nordeste 21 Nordeste 0.2 -- -- 96
2019-04-21 04:00:00 6.2 12 Nordeste 22 Nordeste 0.4 -- -- 96
2019-04-21 03:00:00 6.2 10 Nordeste 22 Este 0.2 -- -- 97
2019-04-21 02:00:00 6.3 12 Este 26 Nordeste 0.6 -- -- 97
2019-04-21 01:00:00 5.8 0 Calma 14 Sudeste 2.2 -- -- 96
2019-04-21 00:00:00 5.6 11 Sudeste 33 Sudeste 2.8 -- -- 95
2019-04-20 23:00:00 6 18 Sudeste 35 Sudeste 1.6 -- -- 94
2019-04-20 22:00:00 6.8 19 Sudeste 35 Sudeste 0.8 -- -- 93
2019-04-20 21:00:00 7.3 18 Sudeste 37 Sudeste 0.4 -- -- 91
2019-04-20 20:00:00 7.6 22 Sudeste 40 Sudeste 0.6 -- -- 90
2019-04-20 19:00:00 8.3 19 Sudeste 36 Sudeste 0.6 -- -- 86
2019-04-20 18:00:00 10.9 22 Sudeste 44 Este 0 -- -- 67
2019-04-20 17:00:00 13.3 21 Este 37 Este 0 -- -- 50
2019-04-20 16:00:00 13.6 21 Este 42 Este 0 -- -- 51
2019-04-20 15:00:00 13.6 24 Este 36 Este 0 -- -- 52
2019-04-20 14:00:00 13.3 19 Este 36 Nordeste 0 -- -- 54
2019-04-20 13:00:00 12.9 17 Nordeste 33 Este 0 -- -- 58
2019-04-20 12:00:00 12.6 22 Nordeste 35 Nordeste 0 -- -- 58
2019-04-20 11:00:00 12.8 21 Nordeste 30 Nordeste 0 -- -- 58
2019-04-20 10:00:00 11.2 6 Este 13 Este 0 -- -- 66
2019-04-20 09:00:00 8.5 0 Calma 6 Nordeste 0 -- -- 82
2019-04-20 08:00:00 6.7 0 Calma 5 Nordeste 0 -- -- 88
2019-04-20 07:00:00 7.3 3 Este 11 Nordeste 0 -- -- 82
2019-04-20 06:00:00 7.5 4 Nordeste 9 Nordeste 0 -- -- 83
2019-04-20 05:00:00 7.8 3 Nordeste 14 Este 0 -- -- 82
2019-04-20 04:00:00 8.1 9 Este 17 Este 0 -- -- 82
2019-04-20 03:00:00 7.3 6 Este 8 Este 0 -- -- 86
2019-04-20 02:00:00 7.1 5 Este 7 Este 0 -- -- 85
2019-04-20 01:00:00 8.6 6 Este 17 Este 0 -- -- 78
2019-04-20 00:00:00 8.6 10 Este 18 Sudeste 0 -- -- 79
2019-04-19 23:00:00 9.3 8 Este 18 Este 0 -- -- 74
2019-04-19 22:00:00 10.5 13 Este 32 Este 0 -- -- 69
2019-04-19 21:00:00 11 17 Este 41 Este 0 -- -- 66
2019-04-19 20:00:00 12.1 19 Este 44 Este 0 -- -- 63
2019-04-19 19:00:00 12.7 30 Este 49 Este 0 -- -- 60
2019-04-19 18:00:00 13.6 28 Este 48 Este 0 -- -- 58
2019-04-19 17:00:00 13.9 28 Este 53 Este 0 -- -- 58
2019-04-19 16:00:00 14.2 37 Este 62 Este 0 -- -- 59
2019-04-19 15:00:00 13.1 34 Este 52 Este 0 -- -- 71
2019-04-19 14:00:00 12 34 Este 54 Este 0 -- -- 75
2019-04-19 13:00:00 10.8 29 Este 49 Este 0.2 -- -- 86
2019-04-19 12:00:00 9.2 34 Este 54 Este 0 -- -- 94
2019-04-19 11:00:00 9.3 32 Este 49 Este 0 -- -- 97
2019-04-19 10:00:00 9.2 28 Este 44 Este 0.2 -- -- 98
2019-04-19 09:00:00 9 23 Este 43 Este 0.2 -- -- 98
2019-04-19 08:00:00 8.9 24 Este 39 Este 0.8 -- -- 98
2019-04-19 07:00:00 8.3 3 Nordeste 9 Nordeste 2.8 -- -- 98
2019-04-19 06:00:00 8 3 Sudoeste 9 Oeste 3.8 -- -- 97
2019-04-19 05:00:00 7.8 3 Sudoeste 6 Norte 3.8 -- -- 97
2019-04-19 04:00:00 7.7 4 Norte 9 Norte 2 -- -- 96
2019-04-19 03:00:00 7.7 4 Oeste 6 Sudoeste 3.6 -- -- 96
2019-04-19 02:00:00 7.7 4 Noroeste 6 Oeste 4.4 -- -- 95
2019-04-19 01:00:00 7.8 0 Calma 5 Sudoeste 3.4 -- -- 94
2019-04-19 00:00:00 7.9 5 Sudoeste 28 Sur 6.6 -- -- 92
2019-04-18 23:00:00 8.6 13 Sur 28 Sudeste 0 -- -- 84
2019-04-18 22:00:00 11.3 11 Sudeste 25 Sudeste 0 -- -- 77
2019-04-18 21:00:00 11.7 15 Sudeste 36 Este 0 -- -- 72
2019-04-18 20:00:00 12.2 26 Este 43 Este 0 -- -- 66
2019-04-18 19:00:00 12.6 22 Sudeste 42 Sudeste 0 -- -- 66
2019-04-18 18:00:00 13.6 24 Sudeste 46 Sudeste 0 -- -- 59
2019-04-18 17:00:00 15.4 19 Sudeste 46 Este 0 -- -- 51
2019-04-18 16:00:00 15.8 29 Este 42 Este 0 -- -- 50
2019-04-18 15:00:00 14.1 18 Nordeste 33 Nordeste 0 -- -- 63
2019-04-18 14:00:00 12.8 16 Este 30 Este 0 -- -- 67
2019-04-18 13:00:00 11.5 15 Este 24 Este 0 -- -- 78
2019-04-18 12:00:00 10.4 13 Nordeste 20 Nordeste 0 -- -- 86
2019-04-18 11:00:00 9.7 8 Nordeste 12 Nordeste 0 -- -- 92
2019-04-18 10:00:00 8.5 9 Sur 15 Sur 0.2 -- -- 97
2019-04-18 09:00:00 7.7 9 Nordeste 14 Norte 0 -- -- 98
2019-04-18 08:00:00 7.5 4 Noroeste 10 Sudoeste 0 -- -- 98
2019-04-18 07:00:00 7.4 3 Oeste 9 Norte 0 -- -- 97
2019-04-18 06:00:00 7.4 3 Noroeste 6 Noroeste 0 -- -- 97
2019-04-18 05:00:00 7.2 0 Calma 8 Norte 0 -- -- 95
2019-04-18 04:00:00 7.8 0 Calma 6 Este 0 -- -- 93
2019-04-18 03:00:00 8.1 0 Calma 6 Oeste 0 -- -- 92
2019-04-18 02:00:00 8.8 0 Calma 7 Sur 0 -- -- 90
2019-04-18 01:00:00 9.4 0 Calma 13 Noroeste 0 -- -- 89
2019-04-18 00:00:00 10.7 7 Noroeste 13 Noroeste 0 -- -- 85
2019-04-17 23:00:00 12 4 Noroeste 12 Oeste 0 -- -- 78
2019-04-17 22:00:00 12.6 5 Este 9 Nordeste 0 -- -- 75
2019-04-17 21:00:00 13.4 6 Nordeste 14 Nordeste 0 -- -- 72
2019-04-17 20:00:00 15.5 9 Nordeste 21 Nordeste 0 -- -- 65
2019-04-17 19:00:00 17.7 13 Nordeste 24 Nordeste 0 -- -- 57
2019-04-17 18:00:00 18.8 14 Nordeste 26 Nordeste 0 -- -- 52
2019-04-17 17:00:00 18.4 19 Nordeste 27 Nordeste 0 -- -- 54
2019-04-17 16:00:00 19.6 17 Este 31 Este 0 -- -- 48
2019-04-17 15:00:00 18.7 15 Este 30 Este 0 -- -- 51
2019-04-17 14:00:00 17 18 Este 29 Este 0 -- -- 54
2019-04-17 13:00:00 16.3 12 Este 24 Sudeste 0 -- -- 58
2019-04-17 12:00:00 13.9 15 Este 23 Este 0 -- -- 64
2019-04-17 11:00:00 12.7 8 Este 14 Este 0 -- -- 69
2019-04-17 10:00:00 10.1 4 Este 10 Este 0 -- -- 81
2019-04-17 09:00:00 7.4 2 Noroeste 4 Noroeste 0 -- -- 91
2019-04-17 08:00:00 5.3 2 Nordeste 7 Nordeste 0 -- -- 95
2019-04-17 07:00:00 5.9 3 Este 6 Nordeste 0 -- -- 89
2019-04-17 06:00:00 7.3 0 Calma 11 Este 0 -- -- 88
2019-04-17 05:00:00 8 9 Sudeste 14 Este 0 -- -- 88
2019-04-17 04:00:00 8.3 8 Sudeste 14 Este 0 -- -- 87
2019-04-17 03:00:00 8.2 6 Sudeste 9 Sudeste 0 -- -- 86
2019-04-17 02:00:00 8.7 3 Sur 11 Este 0 -- -- 86
2019-04-17 01:00:00 9.3 3 Sur 15 Sudeste 0 -- -- 84
2019-04-17 00:00:00 10 12 Este 18 Este 0 -- -- 82
2019-04-16 23:00:00 11.2 14 Este 19 Este 0 -- -- 78
2019-04-16 22:00:00 12.4 11 Este 17 Este 0 -- -- 74
2019-04-16 21:00:00 14.4 9 Sudeste 26 Este 0 -- -- 63
2019-04-16 20:00:00 16.2 19 Este 30 Este 0 -- -- 49
2019-04-16 19:00:00 17.2 15 Este 27 Este 0 -- -- 47
2019-04-16 18:00:00 18 13 Este 31 Este 0 -- -- 45
2019-04-16 17:00:00 17.8 11 Nordeste 24 Nordeste 0 -- -- 43
2019-04-16 16:00:00 17.2 6 Nordeste 21 Este 0 -- -- 46
2019-04-16 15:00:00 16.4 4 Este 19 Este 0 -- -- 48
2019-04-16 14:00:00 16.2 5 Sur 20 Nordeste 0 -- -- 50
2019-04-16 13:00:00 15 4 Sudeste 12 Nordeste 0 -- -- 54
2019-04-16 12:00:00 13.5 5 Norte 15 Noroeste 0 -- -- 66
2019-04-16 11:00:00 11.4 7 Noroeste 14 Noroeste 0 -- -- 74
2019-04-16 10:00:00 9.6 7 Noroeste 16 Oeste 0 -- -- 80
2019-04-16 09:00:00 8.5 7 Oeste 15 Noroeste 0 -- -- 88
2019-04-16 08:00:00 7.7 2 Noroeste 17 Oeste 0 -- -- 88
2019-04-16 07:00:00 7.9 7 Oeste 25 Noroeste 0 -- -- 90
2019-04-16 06:00:00 8.3 10 Oeste 25 Oeste 0 -- -- 93
2019-04-16 05:00:00 8 9 Noroeste 17 Noroeste 0 -- -- 92
2019-04-16 04:00:00 8.1 5 Noroeste 20 Oeste 0.4 -- -- 93
2019-04-16 03:00:00 7.6 9 Oeste 19 Noroeste 0 -- -- 91
2019-04-16 02:00:00 8.1 11 Noroeste 18 Noroeste 0 -- -- 91
2019-04-16 01:00:00 8.4 5 Noroeste 16 Noroeste 0 -- -- 90
2019-04-16 00:00:00 11.2 7 Oeste 15 Noroeste 0 -- -- 83
2019-04-15 23:00:00 9.7 5 Oeste 26 Noroeste 0 -- -- 87
2019-04-15 22:00:00 11.9 7 Oeste 23 Noroeste 0 -- -- 79
2019-04-15 21:00:00 14.6 8 Noroeste 37 Sudoeste 0 -- -- 71
2019-04-15 20:00:00 19.5 21 Sudoeste 37 Sur 0 -- -- 50
2019-04-15 19:00:00 21.8 20 Sudoeste 38 Sur 0 -- -- 42
2019-04-15 18:00:00 22.2 19 Sur 39 Sur 0 -- -- 41
2019-04-15 17:00:00 21.9 23 Sur 35 Sur 0 -- -- 42
2019-04-15 16:00:00 21.7 17 Sur 32 Sur 0 -- -- 44
2019-04-15 15:00:00 22.3 21 Sudoeste 38 Sur 0 -- -- 41
2019-04-15 14:00:00 22.8 20 Sur 33 Sur 0 -- -- 40
2019-04-15 13:00:00 20.6 16 Este 33 Este 0 -- -- 52
2019-04-15 12:00:00 19 17 Este 25 Este 0 -- -- 56
2019-04-15 11:00:00 17.6 12 Este 17 Este 0 -- -- 60
2019-04-15 10:00:00 14.7 7 Este 12 Sudeste 0 -- -- 70
2019-04-15 09:00:00 12.3 2 Sur 9 Este 0 -- -- 79
2019-04-15 08:00:00 9 3 Sur 8 Sudeste 0 -- -- 86
2019-04-15 07:00:00 9.2 3 Sur 10 Sur 0 -- -- 84
2019-04-15 06:00:00 9.6 9 Sur 15 Sur 0 -- -- 81
2019-04-15 05:00:00 9.4 8 Sur 13 Sudeste 0 -- -- 82
2019-04-15 04:00:00 10.6 10 Sudeste 16 Sudeste 0 -- -- 79
2019-04-15 03:00:00 10.7 8 Sudeste 14 Sudeste 0 -- -- 79
2019-04-15 02:00:00 11.3 3 Sudeste 12 Este 0 -- -- 76
2019-04-15 01:00:00 11.7 5 Sudoeste 10 Sur 0 -- -- 75
2019-04-15 00:00:00 14 4 Oeste 12 Sudoeste 0 -- -- 68
2019-04-14 23:00:00 13.9 7 Sur 14 Oeste 0 -- -- 67
2019-04-14 22:00:00 14.8 4 Oeste 16 Noroeste 0 -- -- 63
2019-04-14 21:00:00 16.6 7 Noroeste 20 Noroeste 0 -- -- 54
2019-04-14 20:00:00 18.7 13 Noroeste 24 Norte 0 -- -- 48
2019-04-14 19:00:00 19.8 19 Noroeste 29 Norte 0 -- -- 45
2019-04-14 18:00:00 21 13 Noroeste 23 Noroeste 0 -- -- 47
2019-04-14 17:00:00 21.2 15 Noroeste 28 Noroeste 0 -- -- 46
2019-04-14 16:00:00 21.8 16 Noroeste 36 Oeste 0 -- -- 45
2019-04-14 15:00:00 20.7 18 Noroeste 37 Noroeste 0 -- -- 45
2019-04-14 14:00:00 19.6 19 Noroeste 33 Noroeste 0 -- -- 47
2019-04-14 13:00:00 17.8 16 Oeste 33 Oeste 0 -- -- 53
2019-04-14 12:00:00 16.7 15 Oeste 34 Oeste 0 -- -- 51
2019-04-14 11:00:00 15 24 Oeste 46 Oeste 0 -- -- 58
2019-04-14 10:00:00 14.3 24 Oeste 42 Oeste 0 -- -- 56
2019-04-14 09:00:00 12.9 14 Oeste 27 Oeste 0 -- -- 54
2019-04-14 08:00:00 10.5 8 Oeste 15 Oeste 0 -- -- 47
2019-04-14 07:00:00 9.4 3 Sur 10 Sudoeste 0 -- -- 48
2019-04-14 06:00:00 8.1 2 Sur 9 Sur 0 -- -- 49
2019-04-14 05:00:00 8.1 3 Sudoeste 11 Sur 0 -- -- 43
2019-04-14 04:00:00 9.2 8 Sur 19 Sudoeste 0 -- -- 37
2019-04-14 03:00:00 8.6 10 Sudoeste 18 Sudoeste 0 -- -- 36
2019-04-14 02:00:00 7.6 11 Sur 15 Sur 0 -- -- 37
2019-04-14 01:00:00 7.9 8 Sur 12 Sur 0 -- -- 37
2019-04-14 00:00:00 7.8 9 Sur 12 Sur 0 -- -- 39
2019-04-13 23:00:00 8.1 9 Sur 13 Sur 0 -- -- 40
2019-04-13 22:00:00 10.1 6 Sur 11 Sur 0 -- -- 35
2019-04-13 21:00:00 14.2 2 Sur 4 Norte 0 -- -- 30
2019-04-13 20:00:00 16.9 4 Norte 20 Noroeste 0 -- -- 21
2019-04-13 19:00:00 17.9 14 Norte 26 Noroeste 0 -- -- 18
2019-04-13 18:00:00 19.2 12 Noroeste 25 Noroeste 0 -- -- 20
2019-04-13 17:00:00 19 11 Noroeste 23 Noroeste 0 -- -- 17
2019-04-13 16:00:00 18.4 9 Noroeste 20 Noroeste 0 -- -- 20
2019-04-13 15:00:00 17.7 5 Sur 15 Noroeste 0 -- -- 26
2019-04-13 14:00:00 16.2 4 Oeste 17 Oeste 0 -- -- 28
2019-04-13 13:00:00 15.2 5 Norte 19 Noroeste 0 -- -- 28
2019-04-13 12:00:00 13.9 11 Noroeste 19 Norte 0 -- -- 30
2019-04-13 11:00:00 12.4 7 Oeste 18 Noroeste 0 -- -- 32
2019-04-13 10:00:00 9.6 5 Oeste 10 Oeste 0 -- -- 39
2019-04-13 09:00:00 5.2 3 Sur 8 Sur 0 -- -- 60
2019-04-13 08:00:00 2 4 Sur 10 Sur 0 -- -- 70
2019-04-13 07:00:00 0.9 4 Sur 6 Sur 0 -- -- 78
2019-04-13 06:00:00 1.2 3 Sur 8 Sur 0 -- -- 81
2019-04-13 05:00:00 2.2 4 Sur 9 Sudoeste 0 -- -- 77
2019-04-13 04:00:00 2.9 6 Sur 9 Sur 0 -- -- 75
2019-04-13 03:00:00 3.6 0 Calma 10 Oeste 0 -- -- 72
2019-04-13 02:00:00 5.5 7 Oeste 15 Oeste 0 -- -- 67
2019-04-13 01:00:00 7 9 Oeste 27 Oeste 0 -- -- 61
2019-04-13 00:00:00 7.7 16 Oeste 29 Oeste 0 -- -- 59
2019-04-12 23:00:00 8.2 12 Oeste 20 Oeste 0 -- -- 57
2019-04-12 22:00:00 8.8 7 Oeste 17 Noroeste 0 -- -- 56
2019-04-12 21:00:00 9.9 9 Noroeste 22 Noroeste 0 -- -- 53
2019-04-12 20:00:00 12.4 16 Noroeste 30 Noroeste 0 -- -- 46
2019-04-12 19:00:00 13.9 18 Noroeste 32 Noroeste 0 -- -- 42
2019-04-12 18:00:00 14.6 15 Noroeste 32 Noroeste 0 -- -- 40
2019-04-12 17:00:00 14 22 Noroeste 37 Noroeste 0 -- -- 39
2019-04-12 16:00:00 13.6 20 Noroeste 37 Noroeste 0 -- -- 46
2019-04-12 15:00:00 13.2 19 Noroeste 32 Norte 0 -- -- 47
2019-04-12 14:00:00 12.3 19 Noroeste 36 Noroeste 0 -- -- 51
2019-04-12 13:00:00 11.1 21 Noroeste 36 Oeste 0 -- -- 56
2019-04-12 12:00:00 9.9 19 Noroeste 36 Noroeste 0 -- -- 61
2019-04-12 11:00:00 8.4 20 Noroeste 37 Noroeste 0 -- -- 66
2019-04-12 10:00:00 6.8 21 Noroeste 37 Noroeste 0 -- -- 74
2019-04-12 09:00:00 6.2 17 Noroeste 28 Noroeste 0 -- -- 77
2019-04-12 08:00:00 5.7 13 Noroeste 29 Noroeste 0 -- -- 79
2019-04-12 07:00:00 5.5 13 Noroeste 27 Noroeste 0 -- -- 80
2019-04-12 06:00:00 5.5 13 Noroeste 24 Noroeste 0 -- -- 80
2019-04-12 05:00:00 5.4 10 Oeste 20 Noroeste 0 -- -- 79
2019-04-12 04:00:00 4.9 10 Noroeste 31 Noroeste 0 -- -- 81
2019-04-12 03:00:00 5.5 17 Noroeste 31 Oeste 0 -- -- 78
2019-04-12 02:00:00 5.1 11 Noroeste 26 Oeste 0 -- -- 78
2019-04-12 01:00:00 5.2 12 Noroeste 27 Noroeste 0 -- -- 79
2019-04-12 00:00:00 5.7 18 Noroeste 44 Noroeste 0 -- -- 77
2019-04-11 23:00:00 6.3 23 Noroeste 39 Noroeste 0 -- -- 79
2019-04-11 22:00:00 6.8 18 Noroeste 40 Oeste 0 -- -- 75
2019-04-11 21:00:00 7.9 22 Noroeste 49 Noroeste 0 -- -- 70
2019-04-11 20:00:00 9.3 24 Noroeste 45 Noroeste 0 -- -- 65
2019-04-11 19:00:00 11 31 Noroeste 56 Noroeste 0 -- -- 58
2019-04-11 18:00:00 11.5 31 Noroeste 58 Noroeste 0 -- -- 56
2019-04-11 17:00:00 11.8 30 Noroeste 52 Noroeste 0 -- -- 54
2019-04-11 16:00:00 11.2 33 Noroeste 51 Noroeste 0 -- -- 56
2019-04-11 15:00:00 10.7 32 Noroeste 55 Noroeste 0 -- -- 58
2019-04-11 14:00:00 10.5 28 Noroeste 53 Noroeste 0 -- -- 57
2019-04-11 13:00:00 10.6 33 Noroeste 54 Noroeste 0 -- -- 55
2019-04-11 12:00:00 9.3 26 Noroeste 50 Noroeste 0 -- -- 61
2019-04-11 11:00:00 8.6 23 Noroeste 47 Noroeste 0 -- -- 64
2019-04-11 10:00:00 7.2 24 Noroeste 46 Noroeste 0 -- -- 70
2019-04-11 09:00:00 5.9 26 Noroeste 46 Noroeste 0 -- -- 78
2019-04-11 08:00:00 4.5 16 Noroeste 33 Oeste 0 -- -- 83
2019-04-11 07:00:00 4.5 18 Noroeste 33 Noroeste 0 -- -- 83
2019-04-11 06:00:00 4.5 17 Noroeste 35 Oeste 0 -- -- 83
2019-04-11 05:00:00 4.7 15 Noroeste 34 Noroeste 0 -- -- 81
2019-04-11 04:00:00 4.9 18 Noroeste 33 Noroeste 0 -- -- 80
2019-04-11 03:00:00 5.3 16 Noroeste 37 Noroeste 0 -- -- 80
2019-04-11 02:00:00 5.4 15 Noroeste 36 Noroeste 0 -- -- 81
2019-04-11 01:00:00 5.7 22 Noroeste 38 Noroeste 0 -- -- 78
2019-04-11 00:00:00 6.2 19 Noroeste 36 Oeste 0 -- -- 77
2019-04-10 23:00:00 6.9 16 Noroeste 40 Noroeste 0 -- -- 74
2019-04-10 22:00:00 8.2 19 Noroeste 49 Noroeste 0 -- -- 68
2019-04-10 21:00:00 9 21 Noroeste 39 Noroeste 0 -- -- 63
2019-04-10 20:00:00 10.6 25 Noroeste 41 Noroeste 0 -- -- 58
2019-04-10 19:00:00 11.6 26 Noroeste 41 Noroeste 0 -- -- 54
2019-04-10 18:00:00 12.1 27 Noroeste 44 Noroeste 0 -- -- 52
2019-04-10 17:00:00 11.6 25 Noroeste 39 Noroeste 0 -- -- 53
2019-04-10 16:00:00 11.5 18 Noroeste 36 Noroeste 0 -- -- 55
2019-04-10 15:00:00 10.9 18 Oeste 33 Oeste 0 -- -- 65
2019-04-10 14:00:00 9.2 20 Oeste 30 Oeste 0 -- -- 66
2019-04-10 13:00:00 9.8 18 Noroeste 35 Noroeste 0 -- -- 62
2019-04-10 12:00:00 9.3 20 Oeste 37 Oeste 0 -- -- 63
2019-04-10 11:00:00 8.2 24 Oeste 41 Oeste 0 -- -- 68
2019-04-10 10:00:00 7.7 25 Oeste 44 Oeste 0 -- -- 73
2019-04-10 09:00:00 5.8 21 Oeste 39 Oeste 0 -- -- 81
2019-04-10 08:00:00 4.9 15 Oeste 32 Oeste 0 -- -- 84
2019-04-10 07:00:00 5.2 19 Oeste 36 Oeste 0 -- -- 83
2019-04-10 06:00:00 5.2 17 Oeste 39 Oeste 0 -- -- 83
2019-04-10 05:00:00 5.5 24 Oeste 39 Oeste 0 -- -- 80
2019-04-10 04:00:00 5.4 15 Noroeste 30 Oeste 0 -- -- 81
2019-04-10 03:00:00 5.9 16 Oeste 33 Oeste 0 -- -- 77
2019-04-10 02:00:00 6.3 15 Oeste 28 Oeste 0 -- -- 81
2019-04-10 01:00:00 6.5 17 Oeste 30 Sudoeste 0 -- -- 79
2019-04-10 00:00:00 7 15 Oeste 33 Oeste 0 -- -- 76
2019-04-09 23:00:00 7.3 17 Oeste 41 Oeste 0 -- -- 71
2019-04-09 22:00:00 7.1 26 Oeste 43 Sudoeste 0.2 -- -- 73
2019-04-09 21:00:00 6 24 Oeste 46 Oeste 0 -- -- 81
2019-04-09 20:00:00 6.9 20 Oeste 44 Oeste 0 -- -- 74
2019-04-09 19:00:00 9.2 27 Oeste 48 Oeste 0 -- -- 65
2019-04-09 18:00:00 11.5 18 Sudoeste 49 Oeste 0 -- -- 57
2019-04-09 17:00:00 12.4 21 Oeste 41 Oeste 0 -- -- 48
2019-04-09 16:00:00 13.1 15 Oeste 36 Oeste 0 -- -- 52
2019-04-09 15:00:00 13.1 24 Oeste 40 Sudoeste 0 -- -- 48
2019-04-09 14:00:00 12.7 23 Oeste 37 Oeste 0 -- -- 49
2019-04-09 13:00:00 11.8 19 Oeste 41 Oeste 0 -- -- 55
2019-04-09 12:00:00 10.5 21 Oeste 37 Oeste 0 -- -- 57
2019-04-09 11:00:00 9.5 18 Oeste 33 Oeste 0 -- -- 62
2019-04-09 10:00:00 8.4 15 Oeste 33 Oeste 0 -- -- 69
2019-04-09 09:00:00 7 16 Oeste 39 Oeste 0 -- -- 74
2019-04-09 08:00:00 5.7 21 Oeste 36 Oeste 0 -- -- 78
2019-04-09 07:00:00 5.5 9 Oeste 24 Oeste 0 -- -- 78
2019-04-09 06:00:00 6.4 15 Oeste 33 Oeste 0 -- -- 76
2019-04-09 05:00:00 6 13 Sudoeste 26 Sudoeste 0 -- -- 78
2019-04-09 04:00:00 6.4 17 Sudoeste 33 Sudoeste 0 -- -- 80
2019-04-09 03:00:00 6.9 16 Oeste 28 Oeste 0 -- -- 73
2019-04-09 02:00:00 5.2 2 Este 13 Sur 0 -- -- 83
2019-04-09 01:00:00 6.2 4 Sur 27 Oeste 0 -- -- 81
2019-04-09 00:00:00 7.5 13 Oeste 28 Noroeste 0 -- -- 79
2019-04-08 23:00:00 7.1 10 Sur 13 Sur 0 -- -- 83
2019-04-08 22:00:00 8 3 Sur 21 Oeste 0 -- -- 80
2019-04-08 21:00:00 9.9 20 Sudoeste 33 Sudoeste 0 -- -- 74
2019-04-08 20:00:00 10.5 9 Oeste 39 Oeste 0 -- -- 73
2019-04-08 19:00:00 12.1 15 Oeste 33 Oeste 0 -- -- 69
2019-04-08 18:00:00 13.2 16 Oeste 31 Oeste 0.2 -- -- 70
2019-04-08 17:00:00 11.9 11 Noroeste 41 Oeste 1.4 -- -- 76
2019-04-08 16:00:00 14.9 15 Noroeste 33 Oeste 0 -- -- 62
2019-04-08 15:00:00 14.3 19 Oeste 37 Sudoeste 0 -- -- 63
2019-04-08 14:00:00 13.7 19 Oeste 37 Oeste 0 -- -- 62
2019-04-08 13:00:00 11.9 17 Oeste 33 Oeste 0 -- -- 70
2019-04-08 12:00:00 11 14 Oeste 31 Oeste 0 -- -- 71
2019-04-08 11:00:00 10.2 12 Oeste 27 Oeste 0 -- -- 75
2019-04-08 10:00:00 10.1 14 Oeste 27 Sudoeste 0 -- -- 73
2019-04-08 09:00:00 9.4 11 Oeste 21 Oeste 0 -- -- 75
2019-04-08 08:00:00 8.3 6 Oeste 15 Sudoeste 0 -- -- 77
2019-04-08 07:00:00 7.6 7 Sudoeste 14 Sudoeste 0.2 -- -- 79
2019-04-08 06:00:00 7.6 6 Sudoeste 14 Sudoeste 0 -- -- 77
2019-04-08 05:00:00 7.2 9 Sur 15 Sur 0 -- -- 79
2019-04-08 04:00:00 7 9 Sur 17 Sur 0.2 -- -- 77
2019-04-08 03:00:00 6.6 8 Sur 22 Sudoeste 0 -- -- 81
2019-04-08 02:00:00 7 14 Sudoeste 35 Sudoeste 0.2 -- -- 79
2019-04-08 01:00:00 8.1 15 Sudoeste 30 Sudoeste 0 -- -- 68
2019-04-08 00:00:00 8.3 12 Sudoeste 24 Sudoeste 0 -- -- 59
2019-04-07 23:00:00 7.7 6 Sur 12 Sur 0 -- -- 64
2019-04-07 22:00:00 7.8 3 Sudoeste 7 Oeste 0 -- -- 62
2019-04-07 21:00:00 8.7 4 Oeste 19 Oeste 0 -- -- 56
2019-04-07 20:00:00 9.9 10 Oeste 28 Oeste 0 -- -- 49
2019-04-07 19:00:00 11.3 19 Oeste 37 Oeste 0 -- -- 42
2019-04-07 18:00:00 11.8 19 Oeste 40 Oeste 0 -- -- 43
2019-04-07 17:00:00 11.1 19 Oeste 35 Oeste 0 -- -- 46
2019-04-07 16:00:00 9.8 18 Oeste 40 Oeste 0 -- -- 50
2019-04-07 15:00:00 9.1 22 Oeste 37 Oeste 0 -- -- 52
2019-04-07 14:00:00 8.5 17 Oeste 37 Oeste 0 -- -- 56
2019-04-07 13:00:00 8.4 22 Oeste 38 Oeste 0 -- -- 56
2019-04-07 12:00:00 7.7 24 Oeste 44 Oeste 0 -- -- 59
2019-04-07 11:00:00 6.8 28 Oeste 45 Oeste 0 -- -- 63
2019-04-07 10:00:00 5.7 24 Oeste 43 Oeste 0 -- -- 70
2019-04-07 09:00:00 4.2 17 Oeste 32 Oeste 0 -- -- 77
2019-04-07 08:00:00 3.5 17 Oeste 39 Oeste 0 -- -- 77
2019-04-07 07:00:00 4 22 Oeste 39 Oeste 0 -- -- 74
2019-04-07 06:00:00 4 18 Oeste 38 Oeste 0 -- -- 75
2019-04-07 05:00:00 4.3 22 Oeste 39 Oeste 0 -- -- 75
2019-04-07 04:00:00 4.2 20 Oeste 34 Oeste 0 -- -- 76
2019-04-07 03:00:00 3.7 10 Oeste 29 Oeste 0 -- -- 83
2019-04-07 02:00:00 4.6 23 Oeste 43 Oeste 0 -- -- 80
2019-04-07 01:00:00 4.9 20 Oeste 39 Oeste 0 -- -- 75
2019-04-07 00:00:00 4.5 13 Sudoeste 24 Sudoeste 0 -- -- 77
2019-04-06 23:00:00 4.5 10 Sudoeste 36 Sudoeste 0 -- -- 80
2019-04-06 22:00:00 4.4 26 Sudoeste 49 Sudoeste 0 -- -- 79
2019-04-06 21:00:00 4.8 13 Sudoeste 27 Sudoeste 0 -- -- 74
2019-04-06 20:00:00 5.6 18 Sudoeste 35 Sudoeste 0 -- -- 70
2019-04-06 19:00:00 6.1 19 Oeste 42 Oeste 0 -- -- 72
2019-04-06 18:00:00 10 18 Sudoeste 37 Sudoeste 0 -- -- 48
2019-04-06 17:00:00 10.7 16 Oeste 34 Oeste 0.2 -- -- 46
2019-04-06 16:00:00 9.9 24 Sudoeste 40 Sudoeste 0 -- -- 50
2019-04-06 15:00:00 10.3 25 Sudoeste 41 Oeste 0 -- -- 48
2019-04-06 14:00:00 7.9 23 Sudoeste 36 Oeste 0 -- -- 55
2019-04-06 13:00:00 7.1 19 Oeste 50 Oeste 0 -- -- 58
2019-04-06 12:00:00 8 27 Sudoeste 48 Oeste 0 -- -- 55
2019-04-06 11:00:00 6.9 30 Oeste 51 Oeste 0 -- -- 60
2019-04-06 10:00:00 5.9 24 Oeste 44 Oeste 0 -- -- 64
2019-04-06 09:00:00 4.8 12 Oeste 35 Oeste 0 -- -- 69
2019-04-06 08:00:00 3.6 22 Sudoeste 36 Sudoeste 0 -- -- 74
2019-04-06 07:00:00 3.3 15 Oeste 42 Sudoeste 0 -- -- 76
2019-04-06 06:00:00 3.6 27 Sudoeste 42 Sudoeste 0 -- -- 76
2019-04-06 05:00:00 3.7 26 Sudoeste 41 Sudoeste 0 -- -- 76
2019-04-06 04:00:00 3.9 26 Sudoeste 42 Sudoeste 0 -- -- 75
2019-04-06 03:00:00 4.6 25 Sudoeste 41 Sudoeste 0 -- -- 71
2019-04-06 02:00:00 4.3 20 Oeste 36 Sudoeste 0 -- -- 75
2019-04-06 01:00:00 4.2 21 Oeste 39 Oeste 0 -- -- 78
2019-04-06 00:00:00 3.6 13 Oeste 26 Sudoeste 0 -- -- 83
2019-04-05 23:00:00 3.7 12 Oeste 31 Oeste 0.2 -- -- 83
2019-04-05 22:00:00 6.1 17 Sudoeste 33 Oeste 0 -- -- 75
2019-04-05 21:00:00 7 7 Sur 14 Sudoeste 0 -- -- 74
2019-04-05 20:00:00 7.7 9 Sur 18 Sudeste 0 -- -- 68
2019-04-05 19:00:00 8.4 13 Sur 28 Sur 0 -- -- 66
2019-04-05 18:00:00 8.8 10 Sudoeste 32 Sudoeste 0 -- -- 64
2019-04-05 17:00:00 8.7 17 Sur 32 Sudoeste 0 -- -- 68
2019-04-05 16:00:00 9.1 10 Norte 24 Sudoeste 0 -- -- 73
2019-04-05 15:00:00 11.1 12 Sur 24 Sur 0 -- -- 54
2019-04-05 14:00:00 11 18 Sur 30 Sur 0 -- -- 55
2019-04-05 13:00:00 11.1 11 Sur 27 Sur 0 -- -- 53
2019-04-05 12:00:00 9.5 11 Sudeste 20 Sudeste 0 -- -- 59
2019-04-05 11:00:00 8.8 9 Sur 18 Sur 0 -- -- 59
2019-04-05 10:00:00 7.9 5 Sur 12 Sudoeste 0 -- -- 67
2019-04-05 09:00:00 7 6 Sudoeste 11 Oeste 0 -- -- 71
2019-04-05 08:00:00 7.1 4 Sur 22 Sur 0 -- -- 72
2019-04-05 07:00:00 7.4 14 Sur 33 Sur 0 -- -- 71
2019-04-05 06:00:00 7.5 19 Sur 38 Sur 0 -- -- 71
2019-04-05 05:00:00 7.3 14 Sur 33 Sur 0 -- -- 66
2019-04-05 04:00:00 6.7 25 Sur 36 Sur 0 -- -- 67
2019-04-05 03:00:00 5.1 14 Sur 20 Sur 0 -- -- 71
2019-04-05 02:00:00 4.9 2 Sur 19 Sur 0 -- -- 68
2019-04-05 01:00:00 3.5 6 Sur 13 Sur 0 -- -- 72
2019-04-05 00:00:00 3.1 5 Sur 10 Sur 0 -- -- 76
2019-04-04 23:00:00 4.9 2 Oeste 15 Este 0 -- -- 65
2019-04-04 22:00:00 5.9 13 Sudeste 20 Sudeste 0 -- -- 62
2019-04-04 21:00:00 7.5 14 Este 21 Este 0 -- -- 56
2019-04-04 20:00:00 11.3 2 Nordeste 7 Sudoeste 0 -- -- 39
2019-04-04 19:00:00 11.8 4 Sudoeste 23 Sudoeste 0 -- -- 36
2019-04-04 18:00:00 12.3 12 Sudoeste 23 Oeste 0 -- -- 35
2019-04-04 17:00:00 12 8 Oeste 22 Sudoeste 0 -- -- 36
2019-04-04 16:00:00 10.5 11 Oeste 24 Oeste 0 -- -- 40
2019-04-04 15:00:00 9.2 11 Oeste 23 Oeste 0 -- -- 42
2019-04-04 14:00:00 8.2 13 Oeste 25 Oeste 0 -- -- 42
2019-04-04 13:00:00 6.8 10 Oeste 26 Oeste 0 -- -- 50
2019-04-04 12:00:00 5.5 13 Noroeste 25 Noroeste 0 -- -- 63
2019-04-04 11:00:00 4.3 10 Noroeste 22 Oeste 0 -- -- 66
2019-04-04 10:00:00 2.6 15 Oeste 24 Oeste 0 -- -- 71
2019-04-04 09:00:00 0.8 12 Oeste 23 Oeste 0 -- -- 78
2019-04-04 08:00:00 0.1 7 Oeste 22 Oeste 0 -- -- 81
2019-04-04 07:00:00 -1.6 0 Calma 4 Sudoeste 0 -- -- 90
2019-04-04 06:00:00 -1.2 0 Calma 3 Sur 0 -- -- 90
2019-04-04 05:00:00 -0.7 0 Calma 8 Sur 0 -- -- 91
2019-04-04 04:00:00 0.3 3 Sudoeste 6 Oeste 0 -- -- 90
2019-04-04 03:00:00 1 3 Noroeste 9 Oeste 0 -- -- 87
2019-04-04 02:00:00 2.1 6 Oeste 15 Noroeste 0 -- -- 82
2019-04-04 01:00:00 2.4 6 Oeste 16 Sudoeste 0 -- -- 82
2019-04-04 00:00:00 1.8 9 Sudoeste 14 Sudoeste 0 -- -- 89
2019-04-03 23:00:00 2.1 7 Oeste 14 Oeste 0.2 -- -- 89
2019-04-03 22:00:00 2 10 Oeste 22 Noroeste 0 -- -- 91
2019-04-03 21:00:00 1.9 18 Noroeste 37 Noroeste 0 -- -- 95
2019-04-03 20:00:00 3.7 21 Noroeste 45 Noroeste 0 -- -- 87
2019-04-03 19:00:00 4.4 11 Noroeste 19 Norte 0 -- -- 91
2019-04-03 18:00:00 4.1 4 Norte 11 Noroeste 0.2 -- -- 93
2019-04-03 17:00:00 3.9 9 Noroeste 20 Norte 1 -- -- 92
2019-04-03 16:00:00 4.4 14 Noroeste 28 Noroeste 0.6 -- -- 91
2019-04-03 15:00:00 5.8 17 Noroeste 31 Norte 0 -- -- 90
2019-04-03 14:00:00 8.1 16 Noroeste 25 Noroeste 0 -- -- 85
2019-04-03 13:00:00 9.1 13 Norte 19 Norte 0 -- -- 83
2019-04-03 12:00:00 8.9 10 Norte 19 Norte 0 -- -- 87
2019-04-03 11:00:00 7.4 6 Norte 13 Noroeste 0 -- -- 90
2019-04-03 10:00:00 6.3 6 Norte 15 Noroeste 0 -- -- 94
2019-04-03 09:00:00 5.9 7 Nordeste 12 Norte 0 -- -- 93
2019-04-03 08:00:00 5.9 3 Nordeste 9 Norte 0 -- -- 89
2019-04-03 07:00:00 7.9 6 Noroeste 22 Sudoeste 0 -- -- 77
2019-04-03 06:00:00 7.8 9 Sudoeste 19 Sudoeste 0 -- -- 79
2019-04-03 05:00:00 8.5 10 Sudoeste 21 Sudoeste 0 -- -- 77
2019-04-03 04:00:00 8.1 5 Noroeste 12 Sudoeste 0 -- -- 79
2019-04-03 03:00:00 8.5 0 Calma 13 Noroeste 0 -- -- 80
2019-04-03 02:00:00 9.1 3 Sudoeste 12 Sudoeste 0 -- -- 78
2019-04-03 01:00:00 8.3 3 Sur 8 Sur 0 -- -- 84
2019-04-03 00:00:00 9.2 4 Sur 16 Sudoeste 0 -- -- 80
2019-04-02 23:00:00 9 6 Sur 20 Sudoeste 0 -- -- 80
2019-04-02 22:00:00 8.7 4 Oeste 15 Sur 0 -- -- 79
2019-04-02 21:00:00 9.6 3 Sudoeste 19 Sur 0 -- -- 79
2019-04-02 20:00:00 10.6 8 Sudoeste 25 Sudoeste 0.2 -- -- 75
2019-04-02 19:00:00 11 9 Oeste 27 Oeste 0 -- -- 74
2019-04-02 18:00:00 11.6 17 Noroeste 39 Noroeste 0.2 -- -- 64
2019-04-02 17:00:00 14.2 11 Norte 19 Nordeste 0 -- -- 64
2019-04-02 16:00:00 14 9 Norte 22 Norte 0 -- -- 66
2019-04-02 15:00:00 14.9 13 Noroeste 22 Noroeste 0 -- -- 67
2019-04-02 14:00:00 13.3 10 Norte 20 Norte 0 -- -- 75
2019-04-02 13:00:00 13 10 Noroeste 19 Noroeste 0 -- -- 77
2019-04-02 12:00:00 12.2 3 Oeste 10 Oeste 0 -- -- 75
2019-04-02 11:00:00 10.6 6 Noroeste 10 Noroeste 0 -- -- 85
2019-04-02 10:00:00 9.6 0 Calma 5 Sur 0 -- -- 83
2019-04-02 09:00:00 8 2 Sur 6 Sur 0 -- -- 92
2019-04-02 08:00:00 6.5 3 Sur 6 Sur 0 -- -- 94
2019-04-02 07:00:00 6.5 0 Calma 5 Sur 0 -- -- 92
2019-04-02 06:00:00 7.2 3 Sur 10 Sudoeste 0 -- -- 93
2019-04-02 05:00:00 7.3 0 Calma 5 Sur 0 -- -- 94
2019-04-02 04:00:00 7.7 0 Calma 2 Sudeste 0 -- -- 93
2019-04-02 03:00:00 8.4 0 Calma 6 Sur 0 -- -- 93
2019-04-02 02:00:00 8.2 3 Sur 8 Sudeste 0 -- -- 91
2019-04-02 01:00:00 8.7 5 Sudeste 8 Sudeste 0 -- -- 90
2019-04-02 00:00:00 9 3 Sur 10 Sur 0 -- -- 93
2019-04-01 23:00:00 8.8 6 Sur 10 Sur 0 -- -- 94
2019-04-01 22:00:00 9.6 4 Sudeste 5 Sudeste 0 -- -- 93
2019-04-01 21:00:00 9.9 0 Calma 5 Sudoeste 0.4 -- -- 92
2019-04-01 20:00:00 10.4 2 Este 8 Sudeste 0.4 -- -- 91
2019-04-01 19:00:00 10.9 7 Sudeste 13 Sudeste 0.4 -- -- 91
2019-04-01 18:00:00 11.2 7 Sudeste 19 Este 0 -- -- 89
2019-04-01 17:00:00 11.7 9 Este 18 Este 0.2 -- -- 87
2019-04-01 16:00:00 11.1 8 Este 17 Este 0 -- -- 85
2019-04-01 15:00:00 10.8 9 Este 20 Este 0 -- -- 86
2019-04-01 14:00:00 10.9 12 Este 19 Sudeste 0 -- -- 85
2019-04-01 13:00:00 9.6 9 Este 15 Sudeste 0 -- -- 89
2019-04-01 12:00:00 8.2 6 Sudeste 10 Sudeste 0 -- -- 93
2019-04-01 11:00:00 7.1 6 Sudeste 9 Sudeste 0 -- -- 95
2019-04-01 10:00:00 6.2 4 Sudeste 9 Este 0.4 -- -- 97
2019-04-01 09:00:00 5.8 6 Este 10 Este 0.6 -- -- 97
2019-04-01 08:00:00 5.9 4 Este 6 Este 0.4 -- -- 97
2019-04-01 07:00:00 5.8 3 Este 7 Este 0.2 -- -- 97
2019-04-01 06:00:00 5.8 6 Este 10 Este 1 -- -- 97
2019-04-01 05:00:00 5.9 8 Este 11 Este 0.8 -- -- 97
2019-04-01 04:00:00 6.1 4 Este 8 Este 1.4 -- -- 97
2019-04-01 03:00:00 6.2 6 Este 10 Este 1 -- -- 97
2019-04-01 02:00:00 6.6 3 Este 8 Nordeste 0.8 -- -- 97
2019-04-01 01:00:00 6.6 7 Nordeste 10 Nordeste 1.4 -- -- 97
2019-04-01 00:00:00 6.7 4 Este 8 Este 0.2 -- -- 97
2019-03-31 23:00:00 6.5 3 Nordeste 6 Este 0.6 -- -- 97
2019-03-31 22:00:00 6.5 3 Norte 5 Norte 0.4 -- -- 96
2019-03-31 21:00:00 6.4 2 Nordeste 6 Nordeste 1.4 -- -- 96
2019-03-31 20:00:00 6.4 3 Este 15 Este 2 -- -- 95
2019-03-31 19:00:00 6.8 12 Este 16 Este 2 -- -- 94
2019-03-31 18:00:00 6.9 2 Norte 5 Norte 2.8 -- -- 93
2019-03-31 17:00:00 7 3 Nordeste 6 Este 0.8 -- -- 89
2019-03-31 16:00:00 7.3 4 Este 12 Este 0.4 -- -- 87
2019-03-31 15:00:00 7.6 3 Nordeste 5 Este 0.4 -- -- 83
2019-03-31 14:00:00 7.5 2 Sudeste 18 Sudeste 0 -- -- 84
2019-03-31 13:00:00 7 11 Sudeste 18 Sudeste 0 -- -- 81
2019-03-31 12:00:00 6.8 6 Norte 10 Norte 0 -- -- 77
2019-03-31 11:00:00 6.5 3 Norte 6 Noroeste 0 -- -- 76
2019-03-31 10:00:00 5.4 0 Calma 5 Sur 0 -- -- 80
2019-03-31 09:00:00 3.3 0 Calma 6 Sur 0 -- -- 86
2019-03-31 08:00:00 1.9 0 Calma 5 Sur 0 -- -- 84
2019-03-31 07:00:00 2.3 0 Calma 6 Sur 0 -- -- 84
2019-03-31 06:00:00 2.3 4 Sur 6 Sur 0 -- -- 84
2019-03-31 05:00:00 2.7 0 Calma 3 Sur 0 -- -- 81
2019-03-31 03:00:00 3.7 0 Calma 8 Sur 0 -- -- 76
2019-03-31 01:00:00 4.7 4 Sur 9 Sur 0 -- -- 75
2019-03-31 00:00:00 5.7 3 Sur 6 Norte 0 -- -- 71
2019-03-30 23:00:00 7.2 0 Calma 9 Sur 0 -- -- 66
2019-03-30 22:00:00 7.6 3 Sudeste 10 Este 0 -- -- 67
2019-03-30 21:00:00 8.4 3 Sudeste 9 Este 0 -- -- 57
2019-03-30 20:00:00 10.6 8 Este 20 Nordeste 0 -- -- 52
2019-03-30 19:00:00 12.8 14 Nordeste 26 Nordeste 0 -- -- 40
2019-03-30 18:00:00 14.2 16 Nordeste 29 Este 0 -- -- 37
2019-03-30 17:00:00 15.2 15 Nordeste 28 Este 0 -- -- 36
2019-03-30 16:00:00 15.5 15 Este 29 Este 0 -- -- 34
2019-03-30 15:00:00 15.5 12 Este 31 Este 0 -- -- 32
2019-03-30 14:00:00 14.8 12 Nordeste 26 Este 0 -- -- 32
2019-03-30 13:00:00 13.4 10 Nordeste 22 Este 0 -- -- 32
2019-03-30 12:00:00 12.9 11 Nordeste 21 Nordeste 0 -- -- 35
2019-03-30 11:00:00 12.2 5 Nordeste 13 Este 0 -- -- 36
2019-03-30 10:00:00 10.7 3 Este 8 Este 0 -- -- 40
2019-03-30 09:00:00 8.4 4 Sudeste 9 Sur 0 -- -- 50
2019-03-30 08:00:00 3.9 5 Sur 10 Sur 0 -- -- 64
2019-03-30 07:00:00 2.2 6 Sur 13 Sur 0 -- -- 70
2019-03-30 06:00:00 2.2 7 Sur 9 Sur 0 -- -- 71
2019-03-30 05:00:00 2.6 3 Sur 8 Sudeste 0 -- -- 70
2019-03-30 04:00:00 5.4 4 Sudeste 15 Sur 0 -- -- 62
2019-03-30 03:00:00 5.9 7 Sur 16 Sudoeste 0 -- -- 63
2019-03-30 02:00:00 6.1 7 Sur 14 Sur 0 -- -- 66
2019-03-30 01:00:00 6.2 2 Sur 16 Sur 0 -- -- 68
2019-03-30 00:00:00 7.2 11 Sur 17 Sur 0 -- -- 60
2019-03-29 23:00:00 5.7 0 Calma 9 Sudeste 0 -- -- 63
2019-03-29 22:00:00 7 10 Este 17 Este 0 -- -- 60
2019-03-29 21:00:00 8.6 12 Este 22 Este 0 -- -- 56
2019-03-29 20:00:00 10.4 13 Este 35 Este 0 -- -- 50
2019-03-29 19:00:00 12.8 27 Este 38 Este 0 -- -- 44
2019-03-29 18:00:00 15 24 Este 41 Este 0 -- -- 39
2019-03-29 17:00:00 15.6 25 Este 49 Este 0 -- -- 37
2019-03-29 16:00:00 16.1 21 Este 37 Este 0 -- -- 35
2019-03-29 15:00:00 16.4 20 Este 38 Nordeste 0 -- -- 33
2019-03-29 14:00:00 15.4 21 Este 34 Nordeste 0 -- -- 36
2019-03-29 13:00:00 15.4 14 Este 34 Nordeste 0 -- -- 35
2019-03-29 12:00:00 14.4 16 Este 28 Este 0 -- -- 36
2019-03-29 11:00:00 13.3 6 Este 20 Sudeste 0 -- -- 37
2019-03-29 10:00:00 11.7 8 Sudeste 19 Este 0 -- -- 39
2019-03-29 09:00:00 9 8 Sudeste 13 Sudeste 0 -- -- 46
2019-03-29 08:00:00 3.9 3 Sur 7 Sur 0 -- -- 63
2019-03-29 07:00:00 1.5 5 Sur 7 Sur 0 -- -- 72
2019-03-29 06:00:00 2.7 0 Calma 5 Sur 0 -- -- 69
2019-03-29 05:00:00 3 4 Sur 5 Sur 0 -- -- 71
2019-03-29 04:00:00 3.4 3 Sudoeste 6 Sur 0 -- -- 69
2019-03-29 03:00:00 5.5 2 Sur 12 Sur 0 -- -- 61
2019-03-29 02:00:00 5.3 3 Sudeste 10 Sur 0 -- -- 62
2019-03-29 01:00:00 6.9 8 Sur 15 Sur 0 -- -- 58
2019-03-29 00:00:00 7 9 Sur 14 Sur 0 -- -- 57
2019-03-28 23:00:00 6.5 8 Sur 10 Sur 0 -- -- 58
2019-03-28 22:00:00 6.9 6 Sur 10 Sur 0 -- -- 57
2019-03-28 21:00:00 8.8 2 Sur 9 Nordeste 0 -- -- 50
2019-03-28 20:00:00 11 8 Nordeste 14 Nordeste 0 -- -- 45
2019-03-28 19:00:00 13.9 8 Nordeste 17 Nordeste 0 -- -- 39
2019-03-28 18:00:00 15.5 7 Norte 14 Nordeste 0 -- -- 34
2019-03-28 17:00:00 15.4 6 Norte 14 Norte 0 -- -- 33
2019-03-28 16:00:00 16.2 5 Noroeste 18 Norte 0 -- -- 33
2019-03-28 15:00:00 15.1 8 Noroeste 18 Norte 0 -- -- 35
2019-03-28 14:00:00 14.2 7 Nordeste 21 Norte 0 -- -- 38
2019-03-28 13:00:00 13 8 Norte 17 Norte 0 -- -- 42
2019-03-28 12:00:00 12.2 5 Norte 15 Noroeste 0 -- -- 45
2019-03-28 11:00:00 10.4 6 Noroeste 13 Noroeste 0 -- -- 49
2019-03-28 10:00:00 8.8 7 Noroeste 15 Noroeste 0 -- -- 52
2019-03-28 09:00:00 6.7 6 Oeste 12 Oeste 0 -- -- 58
2019-03-28 08:00:00 2 4 Sur 8 Sur 0 -- -- 64
2019-03-28 07:00:00 2.3 4 Oeste 9 Oeste 0 -- -- 66
2019-03-28 06:00:00 1.5 2 Sudoeste 8 Oeste 0 -- -- 69
2019-03-28 05:00:00 1.9 4 Oeste 7 Oeste 0 -- -- 65
2019-03-28 04:00:00 2.4 3 Oeste 9 Noroeste 0 -- -- 62
2019-03-28 03:00:00 3.8 5 Oeste 10 Oeste 0 -- -- 60
2019-03-28 02:00:00 4.3 5 Oeste 14 Oeste 0 -- -- 56
2019-03-28 01:00:00 5.3 7 Oeste 16 Noroeste 0 -- -- 51
2019-03-28 00:00:00 6.2 5 Oeste 17 Oeste 0 -- -- 47
2019-03-27 23:00:00 7.1 4 Noroeste 17 Noroeste 0 -- -- 43
2019-03-27 22:00:00 7.9 5 Oeste 14 Oeste 0 -- -- 40
2019-03-27 21:00:00 8.2 3 Oeste 7 Noroeste 0 -- -- 35
2019-03-27 20:00:00 10.6 0 Calma 11 Noroeste 0 -- -- 30
2019-03-27 19:00:00 13.8 6 Norte 13 Norte 0 -- -- 25
2019-03-27 18:00:00 15.4 7 Norte 18 Noroeste 0 -- -- 24
2019-03-27 17:00:00 15.8 6 Noroeste 18 Noroeste 0 -- -- 23
2019-03-27 16:00:00 15.5 7 Noroeste 21 Norte 0 -- -- 22
2019-03-27 15:00:00 14.8 9 Norte 20 Norte 0 -- -- 26
2019-03-27 14:00:00 14.4 10 Norte 19 Noroeste 0 -- -- 32
2019-03-27 13:00:00 13.2 10 Noroeste 21 Norte 0 -- -- 34
2019-03-27 12:00:00 11.6 10 Noroeste 21 Norte 0 -- -- 37
2019-03-27 11:00:00 10.2 13 Noroeste 26 Oeste 0 -- -- 42
2019-03-27 10:00:00 8.3 15 Noroeste 24 Noroeste 0 -- -- 46
2019-03-27 09:00:00 6.5 15 Noroeste 24 Oeste 0 -- -- 51
2019-03-27 08:00:00 4.2 9 Oeste 15 Oeste 0 -- -- 55
2019-03-27 07:00:00 2.4 5 Sudoeste 15 Oeste 0 -- -- 58
2019-03-27 06:00:00 3 7 Oeste 12 Oeste 0 -- -- 56
2019-03-27 05:00:00 2.8 6 Oeste 15 Oeste 0 -- -- 58
2019-03-27 04:00:00 2.8 6 Oeste 12 Noroeste 0 -- -- 58
2019-03-27 03:00:00 2.4 3 Sudoeste 8 Oeste 0 -- -- 57
2019-03-27 02:00:00 3.7 6 Oeste 14 Oeste 0 -- -- 53
2019-03-27 01:00:00 4.7 5 Oeste 15 Noroeste 0 -- -- 50
2019-03-27 00:00:00 5.4 5 Oeste 21 Oeste 0 -- -- 47
2019-03-26 23:00:00 6.4 7 Oeste 18 Oeste 0 -- -- 45
2019-03-26 22:00:00 7.5 8 Oeste 18 Noroeste 0 -- -- 42
2019-03-26 21:00:00 8.6 8 Noroeste 18 Noroeste 0 -- -- 35
2019-03-26 20:00:00 10.3 2 Norte 9 Noroeste 0 -- -- 28
2019-03-26 19:00:00 13.7 8 Noroeste 17 Noroeste 0 -- -- 25
2019-03-26 18:00:00 15.2 10 Norte 19 Noroeste 0 -- -- 24
2019-03-26 17:00:00 15.7 9 Noroeste 15 Noroeste 0 -- -- 21
2019-03-26 16:00:00 15.5 5 Sudoeste 18 Noroeste 0 -- -- 25
2019-03-26 15:00:00 14.8 5 Oeste 18 Noroeste 0 -- -- 31
2019-03-26 14:00:00 13.3 5 Norte 15 Norte 0 -- -- 35
2019-03-26 13:00:00 12.3 9 Norte 19 Noroeste 0 -- -- 39
2019-03-26 12:00:00 11.2 6 Norte 20 Noroeste 0 -- -- 44
2019-03-26 11:00:00 9.5 9 Norte 18 Noroeste 0 -- -- 49
2019-03-26 10:00:00 7.8 10 Noroeste 20 Oeste 0 -- -- 57
2019-03-26 09:00:00 5.7 12 Noroeste 23 Noroeste 0 -- -- 65
2019-03-26 08:00:00 3.7 9 Noroeste 18 Noroeste 0 -- -- 74
2019-03-26 07:00:00 3 9 Noroeste 18 Oeste 0 -- -- 76
2019-03-26 06:00:00 3 5 Oeste 19 Noroeste 0 -- -- 77
2019-03-26 05:00:00 3.5 6 Oeste 29 Noroeste 0 -- -- 77
2019-03-26 04:00:00 3.6 7 Noroeste 23 Noroeste 0 -- -- 77
2019-03-26 03:00:00 4 10 Oeste 23 Oeste 0 -- -- 77
2019-03-26 02:00:00 4.1 14 Noroeste 30 Noroeste 0 -- -- 76
2019-03-26 01:00:00 4.2 12 Oeste 25 Oeste 0 -- -- 73
2019-03-26 00:00:00 4.7 15 Noroeste 37 Oeste 0 -- -- 71
2019-03-25 23:00:00 5.3 17 Oeste 35 Oeste 0 -- -- 69
2019-03-25 22:00:00 6 21 Noroeste 37 Noroeste 0 -- -- 66
2019-03-25 21:00:00 7.2 17 Oeste 34 Noroeste 0 -- -- 59
2019-03-25 20:00:00 8.5 18 Noroeste 42 Noroeste 0 -- -- 54
2019-03-25 19:00:00 10.8 19 Noroeste 34 Noroeste 0 -- -- 45
2019-03-25 18:00:00 12.6 25 Noroeste 40 Noroeste 0 -- -- 40
2019-03-25 17:00:00 13.9 24 Noroeste 38 Noroeste 0 -- -- 38
2019-03-25 16:00:00 14.8 22 Noroeste 35 Oeste 0 -- -- 36
2019-03-25 15:00:00 15 21 Noroeste 36 Noroeste 0 -- -- 37
2019-03-25 14:00:00 14.7 19 Noroeste 32 Noroeste 0 -- -- 43
2019-03-25 13:00:00 13.7 19 Noroeste 37 Oeste 0 -- -- 48
2019-03-25 12:00:00 12.4 20 Noroeste 37 Oeste 0 -- -- 53
2019-03-25 11:00:00 11.1 17 Noroeste 36 Noroeste 0 -- -- 60
2019-03-25 10:00:00 9.5 24 Noroeste 39 Noroeste 0 -- -- 64
2019-03-25 09:00:00 9 16 Noroeste 29 Noroeste 0 -- -- 60
2019-03-25 08:00:00 7.3 6 Oeste 19 Oeste 0 -- -- 60
2019-03-25 07:00:00 6.9 9 Oeste 19 Oeste 0 -- -- 60
2019-03-25 06:00:00 7.2 9 Oeste 15 Oeste 0 -- -- 59
2019-03-25 05:00:00 7.4 7 Oeste 13 Oeste 0 -- -- 60
2019-03-25 04:00:00 7.1 4 Sudoeste 15 Oeste 0 -- -- 61
2019-03-25 03:00:00 8.6 9 Noroeste 20 Oeste 0 -- -- 58
2019-03-25 02:00:00 8.3 7 Noroeste 14 Noroeste 0 -- -- 60
2019-03-25 01:00:00 9.3 5 Oeste 8 Oeste 0 -- -- 56
2019-03-25 00:00:00 9.9 5 Oeste 14 Oeste 0 -- -- 54